Time;durP1;ratioP1;P1;durP2;ratioP2;P2;SDS_P1;SDS_P2;PMS_P1;PMS_P2;Temp;Humidity;BMP_temperature;BMP_pressure;BME280_temperature;BME280_humidity;BME280_pressure;Samples;Min_cycle;Max_cycle;Signal;HPM_P1;HPM_P2
2022/02/26 00:00:39;;;;;;;;;;;;;;;;;;5091339;28;960;-71
2022/02/26 00:03:05;;;;;;;;;;;;;;;;;;5072734;28;1985;-71
2022/02/26 00:05:31;;;;;;;;;;;;;;;;;;5091030;28;1312;-71
2022/02/26 00:07:57;;;;;;;;;;;;;;;;;;5090703;28;1372;-71
2022/02/26 00:10:24;;;;;;;;;;;;;;;;;;5090748;28;1070;-71
2022/02/26 00:12:52;;;;;;;;;;;;;;;;;;5093304;28;1067;-71
2022/02/26 00:15:19;;;;;;;;;;;;;;;;;;5090783;28;1149;-71
2022/02/26 00:17:45;;;;;;;;;;;;;;;;;;5090662;28;1365;-71
2022/02/26 00:20:12;;;;;;;;;;;;;;;;;;5090445;28;1066;-71
2022/02/26 00:22:38;;;;;;;;;;;;;;;;;;5090641;28;1918;-71
2022/02/26 00:25:04;;;;;;;;;;;;;;;;;;5090718;28;1066;-71
2022/02/26 00:27:31;;;;;;;;;;;;;;;;;;5090512;28;1360;-72
2022/02/26 00:29:58;;;;;;;;;;;;;;;;;;5090362;28;1146;-71
2022/02/26 00:32:24;;;;;;;;;;;;;;;;;;5090931;28;960;-71
2022/02/26 00:34:51;;;;;;;;;;;;;;;;;;5072631;28;1464;-71
2022/02/26 00:37:17;;;;;;;;;;;;;;;;;;5090568;28;1407;-71
2022/02/26 00:39:43;;;;;;;;;;;;;;;;;;5072428;28;1146;-71
2022/02/26 00:42:09;;;;;;;;;;;;;;;;;;5090619;28;1909;-71
2022/02/26 00:44:38;;;;;;;;;;;;;;;;;;5072630;28;1336;-71
2022/02/26 00:47:06;;;;;;;;;;;;;;;;;;5090014;28;1273;-71
2022/02/26 00:49:46;;;;;;;;;;;;;;;;;;5090567;28;936;-70
2022/02/26 00:52:13;;;;;;;;;;;;;;;;;;5090538;28;1066;-71
2022/02/26 00:54:39;;;;;;;;;;;;;;;;;;5091002;28;826;-71
2022/02/26 00:57:06;;;;;;;;;;;;;;;;;;5090837;28;1304;-71
2022/02/26 00:59:32;;;;;;;;;;;;;;;;;;5090767;28;801;-70
2022/02/26 01:01:58;;;;;;;;;;;;;;;;;;5090492;28;1918;-71
2022/02/26 01:04:26;;;;;;;;;;;;;;;;;;5090161;28;901;-71
2022/02/26 01:06:52;;;;;;;;;;;;;;;;;;5090259;28;1434;-72
2022/02/26 01:09:20;;;;;;;;;;;;;;;;;;5072689;28;1194;-71
2022/02/26 01:11:47;;;;;;;;;;;;;;;;;;5094125;28;884;-71
2022/02/26 01:14:13;;;;;;;;;;;;;;;;;;5094186;28;1079;-71
2022/02/26 01:16:40;;;;;;;;;;;;;;;;;;5094366;28;1278;-71
2022/02/26 01:19:06;;;;;;;;;;;;;;;;;;5094192;28;766;-71
2022/02/26 01:21:33;;;;;;;;;;;;;;;;;;5092526;28;1976;-71
2022/02/26 01:24:00;;;;;;;;;;;;;;;;;;5075208;28;1507;-71
2022/02/26 01:26:26;;;;;;;;;;;;;;;;;;5073704;28;1384;-70
2022/02/26 01:28:52;;;;;;;;;;;;;;;;;;5073823;28;1078;-71
2022/02/26 01:31:18;;;;;;;;;;;;;;;;;;5073405;28;1074;-71
2022/02/26 01:33:45;;;;;;;;;;;;;;;;;;5075332;28;1066;-71
2022/02/26 01:36:11;;;;;;;;;;;;;;;;;;5073519;28;944;-71
2022/02/26 01:38:39;;;;;;;;;;;;;;;;;;5073465;28;1373;-71
2022/02/26 01:41:05;;;;;;;;;;;;;;;;;;5073132;28;1070;-71
2022/02/26 01:43:32;;;;;;;;;;;;;;;;;;5073563;28;1981;-71
2022/02/26 01:45:58;;;;;;;;;;;;;;;;;;5073515;28;941;-71
2022/02/26 01:48:24;;;;;;;;;;;;;;;;;;5073370;28;1370;-71
2022/02/26 01:50:51;;;;;;;;;;;;;;;;;;5073245;28;1007;-71
2022/02/26 01:53:17;;;;;;;;;;;;;;;;;;5073270;28;892;-71
2022/02/26 01:55:45;;;;;;;;;;;;;;;;;;5073471;28;794;-71
2022/02/26 01:58:11;;;;;;;;;;;;;;;;;;5073043;28;1301;-71
2022/02/26 02:00:37;;;;;;;;;;;;;;;;;;5073126;28;956;-71
2022/02/26 02:03:03;;;;;;;;;;;;;;;;;;5073028;28;1919;-71
2022/02/26 02:05:31;;;;;;;;;;;;;;;;;;5073636;28;1091;-70
2022/02/26 02:07:57;;;;;;;;;;;;;;;;;;5072842;28;1297;-70
2022/02/26 02:10:23;;;;;;;;;;;;;;;;;;5072735;28;857;-70
2022/02/26 02:12:51;;;;;;;;;;;;;;;;;;5072936;28;1059;-70
2022/02/26 02:15:25;;;;;;;;;;;;;;;;;;5073026;28;885;-70
2022/02/26 02:17:51;;;;;;;;;;;;;;;;;;5072313;28;1886;-70
2022/02/26 02:20:18;;;;;;;;;;;;;;;;;;5071938;28;1126;-70
2022/02/26 02:22:45;;;;;;;;;;;;;;;;;;5072987;28;1910;-70
2022/02/26 02:25:11;;;;;;;;;;;;;;;;;;5074837;28;1074;-70
2022/02/26 02:27:39;;;;;;;;;;;;;;;;;;5074589;28;1407;-69
2022/02/26 02:30:05;;;;;;;;;;;;;;;;;;5072697;28;1086;-70
2022/02/26 02:32:33;;;;;;;;;;;;;;;;;;5072671;28;882;-70
2022/02/26 02:34:59;;;;;;;;;;;;;;;;;;5057554;28;1178;-68
2022/02/26 02:37:25;;;;;;;;;;;;;;;;;;5075790;28;1313;-70
2022/02/26 02:39:53;;;;;;;;;;;;;;;;;;5072499;28;987;-70
2022/02/26 02:42:19;;;;;;;;;;;;;;;;;;5054314;28;1985;-70
2022/02/26 02:44:45;;;;;;;;;;;;;;;;;;5072495;28;1003;-70
2022/02/26 02:47:11;;;;;;;;;;;;;;;;;;5072361;28;1277;-70
2022/02/26 02:49:38;;;;;;;;;;;;;;;;;;5054259;28;1103;-68
2022/02/26 02:52:04;;;;;;;;;;;;;;;;;;5072029;28;1008;-70
2022/02/26 02:54:30;;;;;;;;;;;;;;;;;;5054242;28;1134;-70
2022/02/26 02:56:58;;;;;;;;;;;;;;;;;;5072233;28;1381;-70
2022/02/26 02:59:25;;;;;;;;;;;;;;;;;;5072167;28;865;-70
2022/02/26 03:01:51;;;;;;;;;;;;;;;;;;5071592;28;1973;-70
2022/02/26 03:04:17;;;;;;;;;;;;;;;;;;5071808;28;730;-70
2022/02/26 03:06:43;;;;;;;;;;;;;;;;;;5071782;28;1404;-69
2022/02/26 03:09:09;;;;;;;;;;;;;;;;;;5071941;28;813;-69
2022/02/26 03:11:36;;;;;;;;;;;;;;;;;;5071342;28;1079;-70
2022/02/26 03:14:03;;;;;;;;;;;;;;;;;;5071592;28;738;-69
2022/02/26 03:16:29;;;;;;;;;;;;;;;;;;5074190;28;2063;-69
2022/02/26 03:18:56;;;;;;;;;;;;;;;;;;5071629;28;880;-69
2022/02/26 03:21:22;;;;;;;;;;;;;;;;;;5071384;28;1171;-69
2022/02/26 03:23:48;;;;;;;;;;;;;;;;;;5071561;28;1980;-69
2022/02/26 03:26:14;;;;;;;;;;;;;;;;;;5071554;28;1104;-69
2022/02/26 03:28:40;;;;;;;;;;;;;;;;;;5053193;28;1404;-69
2022/02/26 03:31:08;;;;;;;;;;;;;;;;;;5070869;28;706;-69
2022/02/26 03:33:34;;;;;;;;;;;;;;;;;;5070752;28;972;-69
2022/02/26 03:36:01;;;;;;;;;;;;;;;;;;5071224;28;1062;-69
2022/02/26 03:38:27;;;;;;;;;;;;;;;;;;5071221;28;1403;-69
2022/02/26 03:40:54;;;;;;;;;;;;;;;;;;5070883;28;1070;-69
2022/02/26 03:43:20;;;;;;;;;;;;;;;;;;5071190;28;1914;-69
2022/02/26 03:45:46;;;;;;;;;;;;;;;;;;5071051;28;1134;-69
2022/02/26 03:48:15;;;;;;;;;;;;;;;;;;5070607;28;1313;-69
2022/02/26 03:50:41;;;;;;;;;;;;;;;;;;5070831;28;1074;-69
2022/02/26 03:53:08;;;;;;;;;;;;;;;;;;5071011;28;1067;-69
2022/02/26 03:55:35;;;;;;;;;;;;;;;;;;5071061;28;829;-69
2022/02/26 03:58:01;;;;;;;;;;;;;;;;;;5070821;28;1369;-69
2022/02/26 04:00:28;;;;;;;;;;;;;;;;;;5070568;28;1087;-69
2022/02/26 04:02:54;;;;;;;;;;;;;;;;;;5070857;28;1910;-69
2022/02/26 04:05:21;;;;;;;;;;;;;;;;;;5052822;28;1211;-69
2022/02/26 04:07:47;;;;;;;;;;;;;;;;;;5070737;28;1306;-70
2022/02/26 04:10:14;;;;;;;;;;;;;;;;;;5093355;22;2669;-72
2022/02/26 04:12:40;;;;;;;;;;;;;;;;;;5090101;28;1081;-72
2022/02/26 04:15:07;;;;;;;;;;;;;;;;;;5090798;28;948;-72
2022/02/26 04:17:33;;;;;;;;;;;;;;;;;;5072533;28;833;-72
2022/02/26 04:19:59;;;;;;;;;;;;;;;;;;5088776;28;1995;-73
2022/02/26 04:22:27;;;;;;;;;;;;;;;;;;5080062;28;1914;-72
2022/02/26 04:24:53;;;;;;;;;;;;;;;;;;5075978;28;1252;-72
2022/02/26 04:27:19;;;;;;;;;;;;;;;;;;5090547;28;1142;-72
2022/02/26 04:29:45;;;;;;;;;;;;;;;;;;5090282;28;1289;-72
2022/02/26 04:32:12;;;;;;;;;;;;;;;;;;5090742;28;1145;-72
2022/02/26 04:34:38;;;;;;;;;;;;;;;;;;5105998;28;1114;-73
2022/02/26 04:37:04;;;;;;;;;;;;;;;;;;5090655;28;866;-72
2022/02/26 04:39:32;;;;;;;;;;;;;;;;;;5090192;28;1071;-72
2022/02/26 04:41:58;;;;;;;;;;;;;;;;;;5090027;28;1304;-72
2022/02/26 04:44:24;;;;;;;;;;;;;;;;;;5092509;28;1917;-72
2022/02/26 04:46:50;;;;;;;;;;;;;;;;;;5094504;28;829;-72
2022/02/26 04:49:17;;;;;;;;;;;;;;;;;;5094663;28;1260;-72
2022/02/26 04:51:43;;;;;;;;;;;;;;;;;;5094564;28;1376;-72
2022/02/26 04:54:09;;;;;;;;;;;;;;;;;;5094752;28;829;-72
2022/02/26 04:56:37;;;;;;;;;;;;;;;;;;5094193;28;786;-72
2022/02/26 04:59:03;;;;;;;;;;;;;;;;;;5094419;28;1137;-72
2022/02/26 05:01:29;;;;;;;;;;;;;;;;;;5109682;28;1336;-72
2022/02/26 05:03:56;;;;;;;;;;;;;;;;;;5094273;28;1975;-72
2022/02/26 05:06:23;;;;;;;;;;;;;;;;;;5094469;28;1130;-72
2022/02/26 05:08:49;;;;;;;;;;;;;;;;;;5094210;28;1121;-72
2022/02/26 05:11:16;;;;;;;;;;;;;;;;;;5090534;28;1467;-73
2022/02/26 05:13:43;;;;;;;;;;;;;;;;;;5094120;28;1129;-72
2022/02/26 05:16:09;;;;;;;;;;;;;;;;;;5093875;28;833;-72
2022/02/26 05:18:37;;;;;;;;;;;;;;;;;;5094054;28;794;-72
2022/02/26 05:21:03;;;;;;;;;;;;;;;;;;5093768;28;1343;-72
2022/02/26 05:23:29;;;;;;;;;;;;;;;;;;5093999;28;1909;-72
2022/02/26 05:25:55;;;;;;;;;;;;;;;;;;5094117;28;1139;-72
2022/02/26 05:28:22;;;;;;;;;;;;;;;;;;5086140;28;1484;-72
2022/02/26 05:30:49;;;;;;;;;;;;;;;;;;5082339;28;1416;-72
2022/02/26 05:33:15;;;;;;;;;;;;;;;;;;5059965;28;1497;-72
2022/02/26 05:35:41;;;;;;;;;;;;;;;;;;5074533;28;1699;-71
2022/02/26 05:38:08;;;;;;;;;;;;;;;;;;5089636;28;1508;-72
2022/02/26 05:40:34;;;;;;;;;;;;;;;;;;5056534;28;1607;-72
2022/02/26 05:43:00;;;;;;;;;;;;;;;;;;5056624;28;2159;-72
2022/02/26 05:45:26;;;;;;;;;;;;;;;;;;5073319;28;1066;-72
2022/02/26 05:47:54;;;;;;;;;;;;;;;;;;5078615;28;1492;-70
2022/02/26 05:50:20;;;;;;;;;;;;;;;;;;5076014;28;1556;-69
2022/02/26 05:52:46;;;;;;;;;;;;;;;;;;5055165;28;1104;-72
2022/02/26 05:55:12;;;;;;;;;;;;;;;;;;5072276;28;964;-72
2022/02/26 05:57:39;;;;;;;;;;;;;;;;;;5073030;28;796;-72
2022/02/26 06:00:06;;;;;;;;;;;;;;;;;;5072836;28;1317;-71
2022/02/26 06:02:32;;;;;;;;;;;;;;;;;;5080700;28;1308;-72
2022/02/26 06:05:00;;;;;;;;;;;;;;;;;;5081021;28;1975;-72
2022/02/26 06:07:26;;;;;;;;;;;;;;;;;;5083430;28;1301;-72
2022/02/26 06:09:52;;;;;;;;;;;;;;;;;;5081391;28;1384;-71
2022/02/26 06:12:18;;;;;;;;;;;;;;;;;;5087552;28;1250;-72
2022/02/26 06:14:44;;;;;;;;;;;;;;;;;;5090383;28;1115;-72
2022/02/26 06:17:11;;;;;;;;;;;;;;;;;;5073268;28;885;-72
2022/02/26 06:19:37;;;;;;;;;;;;;;;;;;5072539;28;1095;-71
2022/02/26 06:22:05;;;;;;;;;;;;;;;;;;5072883;28;1020;-72
2022/02/26 06:24:31;;;;;;;;;;;;;;;;;;5072336;28;1914;-72
2022/02/26 06:26:57;;;;;;;;;;;;;;;;;;5071198;28;1327;-72
2022/02/26 06:29:23;;;;;;;;;;;;;;;;;;5085293;28;1261;-72
2022/02/26 06:31:49;;;;;;;;;;;;;;;;;;5092012;28;1380;-72
2022/02/26 06:34:16;;;;;;;;;;;;;;;;;;5091512;28;1507;-72
2022/02/26 06:36:42;;;;;;;;;;;;;;;;;;5073885;28;1198;-73
2022/02/26 06:39:09;;;;;;;;;;;;;;;;;;5084876;28;1520;-70
2022/02/26 06:41:36;;;;;;;;;;;;;;;;;;5074108;28;1492;-72
2022/02/26 06:44:02;;;;;;;;;;;;;;;;;;5092301;28;1977;-72
2022/02/26 06:46:28;;;;;;;;;;;;;;;;;;5054827;28;1511;-72
2022/02/26 06:48:55;;;;;;;;;;;;;;;;;;5070113;28;1095;-72
2022/02/26 06:51:21;;;;;;;;;;;;;;;;;;5086679;28;1428;-72
2022/02/26 06:53:47;;;;;;;;;;;;;;;;;;5089974;28;1014;-72
2022/02/26 06:56:15;;;;;;;;;;;;;;;;;;5077053;28;1460;-72
2022/02/26 06:58:41;;;;;;;;;;;;;;;;;;5089900;28;1513;-72
2022/02/26 07:01:07;;;;;;;;;;;;;;;;;;5082293;28;1490;-73
2022/02/26 07:03:34;;;;;;;;;;;;;;;;;;5089108;28;1972;-72
2022/02/26 07:06:00;;;;;;;;;;;;;;;;;;5066403;28;1417;-72
2022/02/26 07:08:26;;;;;;;;;;;;;;;;;;5069972;28;1185;-72
2022/02/26 07:10:53;;;;;;;;;;;;;;;;;;5072359;28;1714;-71
2022/02/26 07:13:20;;;;;;;;;;;;;;;;;;5054664;28;1489;-73
2022/02/26 07:15:46;;;;;;;;;;;;;;;;;;5071781;28;1095;-73
2022/02/26 07:18:13;;;;;;;;;;;;;;;;;;5081031;28;1505;-71
2022/02/26 07:20:40;;;;;;;;;;;;;;;;;;5089605;28;1512;-72
2022/02/26 07:23:06;;;;;;;;;;;;;;;;;;5091297;28;1569;-72
2022/02/26 07:25:32;;;;;;;;;;;;;;;;;;5068742;28;1910;-72
2022/02/26 07:27:58;;;;;;;;;;;;;;;;;;5073250;28;1088;-73
2022/02/26 07:30:26;;;;;;;;;;;;;;;;;;5088513;28;1448;-72
2022/02/26 07:32:52;;;;;;;;;;;;;;;;;;5088530;28;1397;-72
2022/02/26 07:35:19;;;;;;;;;;;;;;;;;;5091478;28;869;-73
2022/02/26 07:37:45;;;;;;;;;;;;;;;;;;5091095;28;971;-72
2022/02/26 07:40:11;;;;;;;;;;;;;;;;;;5090708;28;1276;-73
2022/02/26 07:42:38;;;;;;;;;;;;;;;;;;5091469;28;1089;-73
2022/02/26 07:45:04;;;;;;;;;;;;;;;;;;5091259;28;1976;-71
2022/02/26 07:47:32;;;;;;;;;;;;;;;;;;5091098;28;821;-73
2022/02/26 07:49:59;;;;;;;;;;;;;;;;;;5091015;28;1361;-73
2022/02/26 07:52:27;;;;;;;;;;;;;;;;;;5084886;28;1190;-72
2022/02/26 07:54:54;;;;;;;;;;;;;;;;;;5069519;28;1258;-72
2022/02/26 07:57:20;;;;;;;;;;;;;;;;;;5081170;28;1274;-73
2022/02/26 07:59:46;;;;;;;;;;;;;;;;;;5079836;28;1404;-72
2022/02/26 08:02:12;;;;;;;;;;;;;;;;;;5079500;28;1254;-73
2022/02/26 08:04:40;;;;;;;;;;;;;;;;;;5071230;28;1918;-73
2022/02/26 08:07:06;;;;;;;;;;;;;;;;;;5074147;28;1135;-72
2022/02/26 08:09:32;;;;;;;;;;;;;;;;;;5080521;28;1678;-71
2022/02/26 08:11:58;;;;;;;;;;;;;;;;;;5079907;28;1235;-72
2022/02/26 08:14:25;;;;;;;;;;;;;;;;;;5072732;28;1169;-74
2022/02/26 08:16:51;;;;;;;;;;;;;;;;;;5052885;28;1287;-72
2022/02/26 08:19:17;;;;;;;;;;;;;;;;;;5070243;28;1087;-72
2022/02/26 08:21:45;;;;;;;;;;;;;;;;;;5052605;28;1361;-72
2022/02/26 08:24:12;;;;;;;;;;;;;;;;;;5052942;28;1979;-72
2022/02/26 08:26:39;;;;;;;;;;;;;;;;;;5087834;28;1586;-73
2022/02/26 08:29:05;;;;;;;;;;;;;;;;;;5082712;28;1401;-73
2022/02/26 08:31:31;;;;;;;;;;;;;;;;;;5079571;28;1305;-73
2022/02/26 08:33:57;;;;;;;;;;;;;;;;;;5071002;28;797;-72
2022/02/26 08:36:23;;;;;;;;;;;;;;;;;;5053190;28;1368;-73
2022/02/26 08:38:51;;;;;;;;;;;;;;;;;;5081075;28;928;-73
2022/02/26 08:41:17;;;;;;;;;;;;;;;;;;5082179;28;1376;-72
2022/02/26 08:43:44;;;;;;;;;;;;;;;;;;5090837;28;1920;-72
2022/02/26 08:46:10;;;;;;;;;;;;;;;;;;5090969;28;876;-72
2022/02/26 08:48:36;;;;;;;;;;;;;;;;;;5090891;28;873;-73
2022/02/26 08:51:03;;;;;;;;;;;;;;;;;;5090781;28;1320;-73
2022/02/26 08:53:29;;;;;;;;;;;;;;;;;;5090709;28;1063;-73
2022/02/26 08:55:56;;;;;;;;;;;;;;;;;;5090683;28;1066;-73
2022/02/26 08:58:22;;;;;;;;;;;;;;;;;;5090489;28;813;-73
2022/02/26 09:00:50;;;;;;;;;;;;;;;;;;5090639;28;1284;-73
2022/02/26 09:03:17;;;;;;;;;;;;;;;;;;5090922;28;1138;-72
2022/02/26 09:05:43;;;;;;;;;;;;;;;;;;5089658;28;1910;-73
2022/02/26 09:08:09;;;;;;;;;;;;;;;;;;5091174;28;1075;-72
2022/02/26 09:10:36;;;;;;;;;;;;;;;;;;5081950;28;1326;-72
2022/02/26 09:13:03;;;;;;;;;;;;;;;;;;5091037;28;1126;-73
2022/02/26 09:15:30;;;;;;;;;;;;;;;;;;5090688;28;962;-72
2022/02/26 09:17:56;;;;;;;;;;;;;;;;;;5090903;28;904;-73
2022/02/26 09:20:22;;;;;;;;;;;;;;;;;;5090385;28;1308;-72
2022/02/26 09:22:48;;;;;;;;;;;;;;;;;;5090811;28;1141;-73
2022/02/26 09:25:15;;;;;;;;;;;;;;;;;;5090714;28;1977;-74
2022/02/26 09:27:43;;;;;;;;;;;;;;;;;;5090956;28;1094;-74
2022/02/26 09:30:11;;;;;;;;;;;;;;;;;;5067686;28;1618;-74
2022/02/26 09:32:37;;;;;;;;;;;;;;;;;;5072310;28;1322;-73
2022/02/26 09:35:04;;;;;;;;;;;;;;;;;;5083132;28;1254;-74
2022/02/26 09:37:30;;;;;;;;;;;;;;;;;;5069169;28;1306;-73
2022/02/26 09:39:58;;;;;;;;;;;;;;;;;;5085377;28;1362;-72
2022/02/26 09:42:25;;;;;;;;;;;;;;;;;;5087181;28;1457;-73
2022/02/26 09:44:51;;;;;;;;;;;;;;;;;;5094388;28;1926;-72
2022/02/26 09:47:19;;;;;;;;;;;;;;;;;;5094632;28;967;-73
2022/02/26 09:49:45;;;;;;;;;;;;;;;;;;5093867;28;1404;-72
2022/02/26 09:52:11;;;;;;;;;;;;;;;;;;5094766;28;841;-72
2022/02/26 09:54:38;;;;;;;;;;;;;;;;;;5094898;28;1129;-73
2022/02/26 09:57:04;;;;;;;;;;;;;;;;;;5094579;28;987;-72
2022/02/26 09:59:30;;;;;;;;;;;;;;;;;;5094344;28;1090;-72
2022/02/26 10:01:58;;;;;;;;;;;;;;;;;;5093937;28;1392;-73
2022/02/26 10:04:25;;;;;;;;;;;;;;;;;;5093873;28;1914;-72
2022/02/26 10:06:51;;;;;;;;;;;;;;;;;;5094165;28;1082;-73
2022/02/26 10:09:18;;;;;;;;;;;;;;;;;;5092592;28;1087;-73
2022/02/26 10:11:44;;;;;;;;;;;;;;;;;;5212515;22;4125;-70
2022/02/26 10:14:11;;;;;;;;;;;;;;;;;;5113811;28;1142;-71
2022/02/26 10:16:47;;;;;;;;;;;;;;;;;;5113768;28;849;-71
2022/02/26 10:19:19;;;;;;;;;;;;;;;;;;5113627;28;1126;-71
2022/02/26 10:21:46;;;;;;;;;;;;;;;;;;5113207;28;1397;-71
2022/02/26 10:24:13;;;;;;;;;;;;;;;;;;5113398;28;1921;-71
2022/02/26 10:26:39;;;;;;;;;;;;;;;;;;5113388;28;1149;-71
2022/02/26 10:29:09;;;;;;;;;;;;;;;;;;5113541;28;849;-71
2022/02/26 10:31:42;;;;;;;;;;;;;;;;;;5094692;28;1424;-70
2022/02/26 10:34:12;;;;;;;;;;;;;;;;;;5113437;28;1062;-73
2022/02/26 10:36:39;;;;;;;;;;;;;;;;;;5113461;28;1054;-71
2022/02/26 10:39:06;;;;;;;;;;;;;;;;;;5113302;28;1081;-70
2022/02/26 10:41:33;;;;;;;;;;;;;;;;;;5103897;28;1459;-71
2022/02/26 10:44:01;;;;;;;;;;;;;;;;;;5113217;28;1140;-72
2022/02/26 10:46:28;;;;;;;;;;;;;;;;;;5113145;28;1973;-70
2022/02/26 10:48:55;;;;;;;;;;;;;;;;;;5112298;28;1070;-70
2022/02/26 10:51:22;;;;;;;;;;;;;;;;;;5108523;28;1884;-69
2022/02/26 10:53:49;;;;;;;;;;;;;;;;;;5104089;28;1818;-69
2022/02/26 10:56:17;;;;;;;;;;;;;;;;;;5110747;28;1160;-70
2022/02/26 10:58:43;;;;;;;;;;;;;;;;;;5093782;28;1171;-70
2022/02/26 11:01:10;;;;;;;;;;;;;;;;;;5109405;28;2164;-70
2022/02/26 11:03:36;;;;;;;;;;;;;;;;;;5104252;28;1484;-72
2022/02/26 11:06:03;;;;;;;;;;;;;;;;;;5103954;28;1921;-71
2022/02/26 11:08:30;;;;;;;;;;;;;;;;;;5112579;28;1077;-71
2022/02/26 11:10:56;;;;;;;;;;;;;;;;;;5112425;28;1114;-71
2022/02/26 11:13:24;;;;;;;;;;;;;;;;;;5112567;28;1304;-71
2022/02/26 11:15:51;;;;;;;;;;;;;;;;;;5112855;28;1078;-71
2022/02/26 11:18:18;;;;;;;;;;;;;;;;;;5112497;28;1086;-70
2022/02/26 11:20:44;;;;;;;;;;;;;;;;;;5112167;28;1083;-72
2022/02/26 11:23:11;;;;;;;;;;;;;;;;;;5111962;28;1313;-72
2022/02/26 11:25:37;;;;;;;;;;;;;;;;;;5100253;28;1914;-72
2022/02/26 11:28:03;;;;;;;;;;;;;;;;;;5091924;28;1078;-71
2022/02/26 11:30:33;;;;;;;;;;;;;;;;;;5091929;28;805;-73
2022/02/26 11:33:00;;;;;;;;;;;;;;;;;;5092894;28;1490;-72
2022/02/26 11:35:27;;;;;;;;;;;;;;;;;;5110179;28;1487;-72
2022/02/26 11:37:56;;;;;;;;;;;;;;;;;;5114118;28;1018;-73
2022/02/26 11:40:22;;;;;;;;;;;;;;;;;;5116720;28;1137;-72
2022/02/26 11:42:49;;;;;;;;;;;;;;;;;;5112145;28;1407;-72
2022/02/26 11:45:18;;;;;;;;;;;;;;;;;;5111890;28;1971;-73
2022/02/26 11:47:51;;;;;;;;;;;;;;;;;;5114436;28;1162;-71
2022/02/26 11:50:18;;;;;;;;;;;;;;;;;;5113639;28;1452;-71
2022/02/26 11:52:49;;;;;;;;;;;;;;;;;;5101164;28;1552;-72
2022/02/26 11:55:29;;;;;;;;;;;;;;;;;;5108054;28;1070;-71
2022/02/26 11:57:55;;;;;;;;;;;;;;;;;;5111445;28;1566;-71
2022/02/26 12:00:22;;;;;;;;;;;;;;;;;;5109625;28;1503;-71
2022/02/26 12:03:03;;;;;;;;;;;;;;;;;;5100113;28;1575;-72
2022/02/26 12:05:30;;;;;;;;;;;;;;;;;;5110622;28;1905;-72
2022/02/26 12:07:57;;;;;;;;;;;;;;;;;;5096232;28;1503;-71
2022/02/26 12:10:27;;;;;;;;;;;;;;;;;;5091162;28;866;-72
2022/02/26 12:12:54;;;;;;;;;;;;;;;;;;5098942;28;1691;-72
2022/02/26 12:15:21;;;;;;;;;;;;;;;;;;5106184;28;1532;-72
2022/02/26 12:17:47;;;;;;;;;;;;;;;;;;5091067;28;1424;-72
2022/02/26 12:20:14;;;;;;;;;;;;;;;;;;5085726;28;1391;-72
2022/02/26 12:22:45;;;;;;;;;;;;;;;;;;5110990;28;1309;-71
2022/02/26 12:25:12;;;;;;;;;;;;;;;;;;5103501;28;1925;-72
2022/02/26 12:27:38;;;;;;;;;;;;;;;;;;5082197;28;1342;-72
2022/02/26 12:30:08;;;;;;;;;;;;;;;;;;5076092;28;1371;-72
2022/02/26 12:32:48;;;;;;;;;;;;;;;;;;5090595;28;1400;-71
2022/02/26 12:35:14;;;;;;;;;;;;;;;;;;5090618;28;1082;-72
2022/02/26 12:37:42;;;;;;;;;;;;;;;;;;5095545;28;1492;-72
2022/02/26 12:40:10;;;;;;;;;;;;;;;;;;5099917;28;1512;-72
2022/02/26 12:42:37;;;;;;;;;;;;;;;;;;5107542;28;1563;-72
2022/02/26 12:45:04;;;;;;;;;;;;;;;;;;5106293;28;1926;-73
2022/02/26 12:47:31;;;;;;;;;;;;;;;;;;5101088;28;1594;-72
2022/02/26 12:49:57;;;;;;;;;;;;;;;;;;5108528;28;1527;-72
2022/02/26 12:52:23;;;;;;;;;;;;;;;;;;5099867;28;1556;-72
2022/02/26 12:54:50;;;;;;;;;;;;;;;;;;5106272;28;1801;-72
2022/02/26 12:57:18;;;;;;;;;;;;;;;;;;5089629;28;1046;-72
2022/02/26 12:59:44;;;;;;;;;;;;;;;;;;5088587;28;1460;-71
2022/02/26 13:02:10;;;;;;;;;;;;;;;;;;5088649;28;1383;-72
2022/02/26 13:04:37;;;;;;;;;;;;;;;;;;5073348;28;1555;-71
2022/02/26 13:07:06;;;;;;;;;;;;;;;;;;5112173;28;1910;-72
2022/02/26 13:09:33;;;;;;;;;;;;;;;;;;5113448;28;868;-70
2022/02/26 13:11:59;;;;;;;;;;;;;;;;;;5095425;28;1320;-72
2022/02/26 13:14:27;;;;;;;;;;;;;;;;;;5115005;28;798;-72
2022/02/26 13:16:54;;;;;;;;;;;;;;;;;;5114639;28;979;-71
2022/02/26 13:19:20;;;;;;;;;;;;;;;;;;5114493;28;864;-72
2022/02/26 13:21:46;;;;;;;;;;;;;;;;;;5114029;28;1327;-72
2022/02/26 13:24:12;;;;;;;;;;;;;;;;;;5114513;28;1078;-72
2022/02/26 13:26:40;;;;;;;;;;;;;;;;;;5114326;28;1918;-72
2022/02/26 13:29:07;;;;;;;;;;;;;;;;;;5111262;28;1465;-72
2022/02/26 13:31:34;;;;;;;;;;;;;;;;;;5095779;28;1418;-72
2022/02/26 13:34:13;;;;;;;;;;;;;;;;;;5096321;28;1131;-72
2022/02/26 13:36:40;;;;;;;;;;;;;;;;;;5114687;28;1133;-72
2022/02/26 13:39:06;;;;;;;;;;;;;;;;;;5114579;28;1110;-73
2022/02/26 13:41:33;;;;;;;;;;;;;;;;;;5113728;28;1305;-72
2022/02/26 13:44:00;;;;;;;;;;;;;;;;;;5114569;28;1087;-72
2022/02/26 13:46:27;;;;;;;;;;;;;;;;;;5114094;28;1906;-72
2022/02/26 13:48:55;;;;;;;;;;;;;;;;;;5114110;28;952;-72
2022/02/26 13:51:21;;;;;;;;;;;;;;;;;;5112968;28;1343;-72
2022/02/26 13:53:47;;;;;;;;;;;;;;;;;;5114002;28;837;-72
2022/02/26 13:56:13;;;;;;;;;;;;;;;;;;5114269;28;1075;-72
2022/02/26 13:58:40;;;;;;;;;;;;;;;;;;5113847;28;987;-72
2022/02/26 14:01:07;;;;;;;;;;;;;;;;;;5095130;28;1107;-72
2022/02/26 14:03:36;;;;;;;;;;;;;;;;;;5114317;28;1316;-72
2022/02/26 14:06:05;;;;;;;;;;;;;;;;;;5113864;28;1973;-72
2022/02/26 14:08:32;;;;;;;;;;;;;;;;;;5114069;28;786;-72
2022/02/26 14:11:00;;;;;;;;;;;;;;;;;;5113587;28;1018;-72
2022/02/26 14:13:27;;;;;;;;;;;;;;;;;;5113696;28;1282;-72
2022/02/26 14:15:53;;;;;;;;;;;;;;;;;;5113405;28;1071;-72
2022/02/26 14:18:23;;;;;;;;;;;;;;;;;;5112955;28;881;-72
2022/02/26 14:20:49;;;;;;;;;;;;;;;;;;5113425;28;1129;-72
2022/02/26 14:23:17;;;;;;;;;;;;;;;;;;5113657;28;1362;-72
2022/02/26 14:25:43;;;;;;;;;;;;;;;;;;5113529;28;1972;-71
2022/02/26 14:28:10;;;;;;;;;;;;;;;;;;5113312;28;861;-72
2022/02/26 14:30:39;;;;;;;;;;;;;;;;;;5112689;28;956;-73
2022/02/26 14:33:06;;;;;;;;;;;;;;;;;;5094164;28;1612;-72
2022/02/26 14:35:33;;;;;;;;;;;;;;;;;;5092472;28;743;-72
2022/02/26 14:37:59;;;;;;;;;;;;;;;;;;5093442;28;928;-72
2022/02/26 14:40:27;;;;;;;;;;;;;;;;;;5095259;28;1542;-71
2022/02/26 14:42:54;;;;;;;;;;;;;;;;;;5098164;28;1403;-70
2022/02/26 14:45:21;;;;;;;;;;;;;;;;;;5102904;28;1515;-70
2022/02/26 14:47:47;;;;;;;;;;;;;;;;;;5093557;28;1924;-70
2022/02/26 14:50:14;;;;;;;;;;;;;;;;;;5106526;28;1515;-71
2022/02/26 14:52:41;;;;;;;;;;;;;;;;;;5100384;28;1561;-72
2022/02/26 14:55:08;;;;;;;;;;;;;;;;;;5092578;28;940;-72
2022/02/26 14:57:36;;;;;;;;;;;;;;;;;;5106420;28;1568;-72
2022/02/26 15:00:02;;;;;;;;;;;;;;;;;;5110654;28;1554;-72
2022/02/26 15:02:28;;;;;;;;;;;;;;;;;;5099958;28;1527;-71
2022/02/26 15:04:55;;;;;;;;;;;;;;;;;;5097628;28;1382;-70
2022/02/26 15:07:21;;;;;;;;;;;;;;;;;;5111749;28;1921;-71
2022/02/26 15:09:48;;;;;;;;;;;;;;;;;;5095457;28;1499;-71
2022/02/26 15:12:14;;;;;;;;;;;;;;;;;;5092669;28;1515;-72
2022/02/26 15:14:42;;;;;;;;;;;;;;;;;;5092365;28;858;-70
2022/02/26 15:17:08;;;;;;;;;;;;;;;;;;5100691;28;1520;-71
2022/02/26 15:19:34;;;;;;;;;;;;;;;;;;5112110;28;1079;-70
2022/02/26 15:22:00;;;;;;;;;;;;;;;;;;5097696;28;1551;-71
2022/02/26 15:24:27;;;;;;;;;;;;;;;;;;5092295;28;1059;-71
2022/02/26 15:26:53;;;;;;;;;;;;;;;;;;5104558;28;1926;-71
2022/02/26 15:29:19;;;;;;;;;;;;;;;;;;5105937;28;1063;-71
2022/02/26 15:31:47;;;;;;;;;;;;;;;;;;5107202;28;1558;-71
2022/02/26 15:34:13;;;;;;;;;;;;;;;;;;5111327;28;1583;-71
2022/02/26 15:36:39;;;;;;;;;;;;;;;;;;5108365;28;1573;-72
2022/02/26 15:39:06;;;;;;;;;;;;;;;;;;5103615;28;1554;-71
2022/02/26 15:41:32;;;;;;;;;;;;;;;;;;5092348;28;1563;-71
2022/02/26 15:43:59;;;;;;;;;;;;;;;;;;5109233;28;1472;-71
2022/02/26 15:46:26;;;;;;;;;;;;;;;;;;5090800;28;1914;-71
2022/02/26 15:48:53;;;;;;;;;;;;;;;;;;5080100;28;1415;-71
2022/02/26 15:51:20;;;;;;;;;;;;;;;;;;5093085;28;1505;-71
2022/02/26 15:53:46;;;;;;;;;;;;;;;;;;5110117;28;1036;-71
2022/02/26 15:56:12;;;;;;;;;;;;;;;;;;5109744;28;963;-69
2022/02/26 15:58:38;;;;;;;;;;;;;;;;;;5090958;28;1475;-73
2022/02/26 16:01:05;;;;;;;;;;;;;;;;;;5107122;28;1369;-72
2022/02/26 16:03:32;;;;;;;;;;;;;;;;;;5105165;28;1460;-72
2022/02/26 16:06:00;;;;;;;;;;;;;;;;;;5103731;28;1925;-73
2022/02/26 16:08:26;;;;;;;;;;;;;;;;;;5096235;28;1518;-73
2022/02/26 16:10:52;;;;;;;;;;;;;;;;;;5109406;28;1125;-73
2022/02/26 16:13:18;;;;;;;;;;;;;;;;;;5100639;28;1420;-73
2022/02/26 16:15:45;;;;;;;;;;;;;;;;;;5099025;28;1488;-73
2022/02/26 16:18:11;;;;;;;;;;;;;;;;;;5107815;28;1455;-73
2022/02/26 16:20:37;;;;;;;;;;;;;;;;;;5082885;28;1492;-73
2022/02/26 16:23:05;;;;;;;;;;;;;;;;;;5109513;28;1427;-72
2022/02/26 16:25:31;;;;;;;;;;;;;;;;;;5084725;28;1482;-72
2022/02/26 16:27:58;;;;;;;;;;;;;;;;;;5088690;28;1914;-72
2022/02/26 16:30:25;;;;;;;;;;;;;;;;;;5088857;28;1502;-72
2022/02/26 16:32:51;;;;;;;;;;;;;;;;;;5092448;28;1519;-72
2022/02/26 16:35:17;;;;;;;;;;;;;;;;;;5070566;28;1273;-72
2022/02/26 16:37:43;;;;;;;;;;;;;;;;;;5089541;28;1297;-72
2022/02/26 16:40:11;;;;;;;;;;;;;;;;;;5102747;28;1157;-72
2022/02/26 16:42:38;;;;;;;;;;;;;;;;;;5106281;28;1527;-72
2022/02/26 16:45:05;;;;;;;;;;;;;;;;;;5097070;28;1452;-72
2022/02/26 16:47:31;;;;;;;;;;;;;;;;;;5082116;28;1963;-72
2022/02/26 16:49:57;;;;;;;;;;;;;;;;;;5093525;28;1523;-72
2022/02/26 16:52:23;;;;;;;;;;;;;;;;;;5095374;28;1410;-72
2022/02/26 16:54:50;;;;;;;;;;;;;;;;;;5108981;28;734;-72
2022/02/26 16:57:18;;;;;;;;;;;;;;;;;;5103359;28;1762;-72
2022/02/26 16:59:44;;;;;;;;;;;;;;;;;;5087758;28;920;-71
2022/02/26 17:02:16;;;;;;;;;;;;;;;;;;5091730;28;1468;-72